createdAt,value
2018-07-30T00:02:04.642Z,3.53
2018-07-30T00:07:06.827Z,3.73
2018-07-30T00:12:08.960Z,4.00
2018-07-30T00:17:11.169Z,3.90
2018-07-30T00:22:13.324Z,3.70
2018-07-30T00:27:15.470Z,3.70
2018-07-30T00:32:17.787Z,4.00
2018-07-30T00:37:19.930Z,4.50
2018-07-30T00:42:22.084Z,3.97
2018-07-30T00:47:24.210Z,3.67
2018-07-30T00:52:26.337Z,4.20
2018-07-30T00:57:28.481Z,4.23
2018-07-30T01:02:30.676Z,3.73
2018-07-30T01:07:32.883Z,3.90
2018-07-30T01:12:35.023Z,4.30
2018-07-30T01:17:37.190Z,4.10
2018-07-30T01:22:39.348Z,4.37
2018-07-30T01:27:41.479Z,5.03
2018-07-30T01:32:43.624Z,4.80
2018-07-30T01:37:45.777Z,4.30
2018-07-30T01:42:47.955Z,5.37
2018-07-30T01:47:50.112Z,4.30
2018-07-30T01:52:52.253Z,4.90
2018-07-30T01:57:54.421Z,5.10
2018-07-30T02:02:56.560Z,5.40
2018-07-30T02:07:58.651Z,5.10
2018-07-30T02:13:00.735Z,5.10
2018-07-30T02:18:02.928Z,4.53
2018-07-30T02:23:05.119Z,4.67
2018-07-30T02:28:07.282Z,4.60
2018-07-30T02:33:09.403Z,4.87
2018-07-30T02:38:11.590Z,5.20
2018-07-30T02:43:13.773Z,5.70
2018-07-30T02:48:15.919Z,6.10
2018-07-30T02:53:18.139Z,5.73
2018-07-30T02:58:20.277Z,6.50
2018-07-30T03:03:22.373Z,5.27
2018-07-30T03:08:24.517Z,6.00
2018-07-30T03:13:26.684Z,5.37
2018-07-30T03:18:28.840Z,5.60
2018-07-30T03:23:30.976Z,5.10
2018-07-30T03:28:33.108Z,5.00
2018-07-30T03:33:42.222Z,4.83
2018-07-30T03:38:44.628Z,4.97
2018-07-30T03:43:46.802Z,5.27
2018-07-30T03:48:48.977Z,5.03
2018-07-30T03:53:51.090Z,5.40
2018-07-30T03:58:53.279Z,5.83
2018-07-30T04:03:55.527Z,5.10
2018-07-30T04:08:57.636Z,5.73
2018-07-30T04:13:59.759Z,5.93
2018-07-30T04:19:01.954Z,5.47
2018-07-30T04:24:04.100Z,5.37
2018-07-30T04:29:06.432Z,5.40
2018-07-30T04:34:08.611Z,5.67
2018-07-30T04:39:12.326Z,5.60
2018-07-30T04:44:14.467Z,5.10
2018-07-30T04:49:16.679Z,5.60
2018-07-30T04:54:18.779Z,5.77
2018-07-30T04:59:20.914Z,5.27
2018-07-30T05:04:23.048Z,5.40
2018-07-30T05:09:25.203Z,5.70
2018-07-30T05:14:27.349Z,5.77
2018-07-30T05:19:29.615Z,5.80
2018-07-30T05:24:31.683Z,6.30
2018-07-30T05:29:33.923Z,4.80
2018-07-30T05:34:36.082Z,6.47
2018-07-30T05:39:38.389Z,6.60
2018-07-30T05:44:40.543Z,6.30
2018-07-30T05:49:42.686Z,6.20
2018-07-30T05:54:44.893Z,6.50
2018-07-30T05:59:47.049Z,6.80
2018-07-30T06:04:49.228Z,5.83
2018-07-30T06:09:51.383Z,6.00
2018-07-30T06:14:53.578Z,6.50
2018-07-30T06:19:55.765Z,6.57
2018-07-30T06:24:57.941Z,7.00
2018-07-30T06:30:00.121Z,6.23
2018-07-30T06:35:02.315Z,6.27
2018-07-30T06:40:04.665Z,7.10
2018-07-30T06:45:06.882Z,6.27
2018-07-30T06:50:09.031Z,6.90
2018-07-30T06:55:11.455Z,6.77
2018-07-30T07:00:13.911Z,6.27
2018-07-30T07:05:16.135Z,7.07
2018-07-30T07:10:18.355Z,7.50
2018-07-30T07:15:20.557Z,7.07
2018-07-30T07:20:22.751Z,6.30
2018-07-30T07:25:24.927Z,7.47
2018-07-30T07:30:27.836Z,6.43
2018-07-30T07:35:30.021Z,6.80
2018-07-30T07:40:32.179Z,7.20
2018-07-30T07:45:34.574Z,6.33
2018-07-30T07:50:36.800Z,6.30
2018-07-30T07:55:38.951Z,6.33
2018-07-30T08:00:41.169Z,5.93
2018-07-30T08:05:43.680Z,5.90
2018-07-30T08:10:45.920Z,6.40
2018-07-30T08:15:49.069Z,6.53
2018-07-30T08:20:51.300Z,5.83
2018-07-30T08:25:53.523Z,6.20
2018-07-30T08:30:55.711Z,5.40
2018-07-30T08:35:57.929Z,5.80
2018-07-30T08:41:00.124Z,5.90
2018-07-30T08:46:02.299Z,6.30
2018-07-30T08:51:04.429Z,5.80
2018-07-30T08:56:06.669Z,6.10
2018-07-30T09:01:09.776Z,7.10
2018-07-30T09:06:11.927Z,6.50
2018-07-30T09:11:14.132Z,6.20
2018-07-30T09:16:16.376Z,5.63
2018-07-30T09:21:18.564Z,6.43
2018-07-30T09:26:20.745Z,6.03
2018-07-30T09:31:22.946Z,5.80
2018-07-30T09:36:25.989Z,6.40
2018-07-30T09:41:28.176Z,7.80
2018-07-30T09:46:30.794Z,7.23
2018-07-30T09:51:32.994Z,7.07
2018-07-30T09:56:35.369Z,6.07
2018-07-30T10:01:37.640Z,6.30
2018-07-30T10:06:39.786Z,5.53
2018-07-30T10:11:42.037Z,5.87
2018-07-30T10:16:45.192Z,5.80
2018-07-30T10:21:47.443Z,6.30
2018-07-30T10:26:49.632Z,5.63
2018-07-30T10:31:51.842Z,4.93
2018-07-30T10:36:54.047Z,4.97
2018-07-30T10:41:56.307Z,5.30
2018-07-30T10:46:58.496Z,5.63
2018-07-30T10:52:00.666Z,6.10
2018-07-30T10:57:02.897Z,5.67
2018-07-30T11:02:05.149Z,5.23
2018-07-30T11:07:07.448Z,4.70
2018-07-30T11:12:09.696Z,4.10
2018-07-30T11:17:11.863Z,4.07
2018-07-30T11:22:14.105Z,3.73
2018-07-30T11:27:16.940Z,3.60
2018-07-30T11:32:19.236Z,3.57
2018-07-30T11:37:21.428Z,3.40
2018-07-30T11:42:23.780Z,3.90
2018-07-30T11:47:25.972Z,4.37
2018-07-30T11:52:28.215Z,3.73
2018-07-30T11:57:30.690Z,3.77
2018-07-30T12:02:32.930Z,4.00
2018-07-30T12:07:35.134Z,3.37
2018-07-30T12:12:37.302Z,3.50
2018-07-30T12:17:39.487Z,3.53
2018-07-30T12:22:41.709Z,4.00
2018-07-30T12:27:43.923Z,3.20
2018-07-30T12:32:46.126Z,3.73
2018-07-30T12:37:48.300Z,3.13
2018-07-30T12:42:50.487Z,3.93
2018-07-30T12:47:52.659Z,3.87
2018-07-30T12:52:54.837Z,3.13
2018-07-30T12:57:57.051Z,3.50
2018-07-30T13:03:06.206Z,3.53
2018-07-30T13:08:08.440Z,3.63
2018-07-30T13:13:10.643Z,3.30
2018-07-30T13:18:13.033Z,3.10
2018-07-30T13:23:15.306Z,3.40
2018-07-30T13:28:17.648Z,3.67
2018-07-30T13:33:19.841Z,3.43
2018-07-30T13:38:22.026Z,3.50
2018-07-30T13:43:24.202Z,3.80
2018-07-30T13:48:26.347Z,3.50
2018-07-30T13:53:28.532Z,3.30
2018-07-30T13:58:30.702Z,3.40
2018-07-30T14:03:32.951Z,3.43
2018-07-30T14:08:35.191Z,3.40
2018-07-30T14:13:37.430Z,3.83
2018-07-30T14:18:39.669Z,3.90
2018-07-30T14:23:41.886Z,3.30
2018-07-30T14:28:44.031Z,3.60
2018-07-30T14:33:46.193Z,4.37
2018-07-30T14:38:48.359Z,3.30
2018-07-30T14:43:50.547Z,3.43
2018-07-30T14:48:52.770Z,3.53
2018-07-30T14:53:54.909Z,3.73
2018-07-30T14:58:57.074Z,3.90
2018-07-30T15:03:59.214Z,3.70
2018-07-30T15:09:01.368Z,4.57
2018-07-30T15:14:03.684Z,4.77
2018-07-30T15:19:06.663Z,4.53
2018-07-30T15:24:08.848Z,4.63
2018-07-30T15:29:11.019Z,4.30
2018-07-30T15:34:13.156Z,4.63
2018-07-30T15:39:15.338Z,4.87
2018-07-30T15:44:17.490Z,5.30
2018-07-30T15:49:19.692Z,5.67
2018-07-30T15:54:21.862Z,4.70
2018-07-30T15:59:24.026Z,5.40
2018-07-30T16:04:26.216Z,5.90
2018-07-30T16:09:28.479Z,4.90
2018-07-30T16:14:30.670Z,5.43
2018-07-30T16:19:32.865Z,4.80
2018-07-30T16:24:35.090Z,5.40
2018-07-30T16:29:37.274Z,5.27
2018-07-30T16:34:39.449Z,6.10
2018-07-30T16:39:41.636Z,6.13
2018-07-30T16:44:43.866Z,5.33
2018-07-30T16:49:46.003Z,5.77
2018-07-30T16:54:48.178Z,5.60
2018-07-30T16:59:50.346Z,5.53
2018-07-30T17:04:52.517Z,5.57
2018-07-30T17:09:54.704Z,5.40
2018-07-30T17:14:56.874Z,5.47
2018-07-30T17:19:59.051Z,6.00
2018-07-30T17:25:01.254Z,5.53
2018-07-30T17:30:04.208Z,6.67
2018-07-30T17:35:06.668Z,6.10
2018-07-30T17:40:09.469Z,6.33
2018-07-30T17:45:12.863Z,6.10
2018-07-30T17:50:15.035Z,6.00
2018-07-30T17:55:17.212Z,6.00
2018-07-30T18:00:19.392Z,6.23
2018-07-30T18:05:21.555Z,6.27
2018-07-30T18:10:23.754Z,6.93
2018-07-30T18:15:25.958Z,6.83
2018-07-30T18:20:28.167Z,5.97
2018-07-30T18:25:30.455Z,6.80
2018-07-30T18:30:32.714Z,6.00
2018-07-30T18:35:34.822Z,6.47
2018-07-30T18:40:36.992Z,6.40
2018-07-30T18:45:39.147Z,7.50
2018-07-30T18:50:41.329Z,7.23
2018-07-30T18:55:43.532Z,7.00
2018-07-30T19:00:45.727Z,7.70
2018-07-30T19:05:47.947Z,6.70
2018-07-30T19:10:50.153Z,7.30
2018-07-30T19:15:52.366Z,7.77
2018-07-30T19:20:54.495Z,7.97
2018-07-30T19:25:56.719Z,7.30
2018-07-30T19:30:58.941Z,8.50
2018-07-30T19:36:01.193Z,8.07
2018-07-30T19:41:03.451Z,7.90
2018-07-30T19:46:05.647Z,8.40
2018-07-30T19:51:07.838Z,8.50
2018-07-30T19:56:10.040Z,8.00
2018-07-30T20:01:12.218Z,8.97
2018-07-30T20:06:14.367Z,8.57
2018-07-30T20:11:16.560Z,8.67
2018-07-30T20:16:19.211Z,8.50
2018-07-30T20:21:21.467Z,10.33
2018-07-30T20:26:23.666Z,8.90
2018-07-30T20:31:26.758Z,9.80
2018-07-30T20:36:28.935Z,9.10
2018-07-30T20:41:31.090Z,9.13
2018-07-30T20:46:33.329Z,9.00
2018-07-30T20:51:35.503Z,9.53
2018-07-30T20:56:37.687Z,8.70
2018-07-30T21:01:39.917Z,9.63
2018-07-30T21:06:42.310Z,9.23
2018-07-30T21:11:44.507Z,9.03
2018-07-30T21:16:47.032Z,9.90
2018-07-30T21:21:49.235Z,9.47
2018-07-30T21:26:51.418Z,8.80
2018-07-30T21:31:53.580Z,8.93
2018-07-30T21:36:55.732Z,9.03
2018-07-30T21:41:57.913Z,9.20
2018-07-30T21:47:00.065Z,9.57
2018-07-30T21:52:02.223Z,9.13
2018-07-30T21:57:04.609Z,9.97
2018-07-30T22:02:06.795Z,8.47
2018-07-30T22:07:08.978Z,9.10
2018-07-30T22:12:11.199Z,10.07
2018-07-30T22:17:13.339Z,9.87
2018-07-30T22:22:15.516Z,9.73
2018-07-30T22:27:17.704Z,9.97
2018-07-30T22:32:19.941Z,10.10
2018-07-30T22:37:22.100Z,10.30
2018-07-30T22:42:24.247Z,9.10
2018-07-30T22:47:26.406Z,9.73
2018-07-30T22:52:28.622Z,8.63
2018-07-30T22:57:31.297Z,8.90
2018-07-30T23:02:33.434Z,7.37
2018-07-30T23:07:35.783Z,7.50
2018-07-30T23:12:37.950Z,6.93
2018-07-30T23:17:40.105Z,7.77
2018-07-30T23:22:42.295Z,7.30
2018-07-30T23:27:44.504Z,7.00
2018-07-30T23:32:46.654Z,7.57
2018-07-30T23:37:48.826Z,7.13
2018-07-30T23:42:50.990Z,7.17
2018-07-30T23:47:53.175Z,7.53
2018-07-30T23:52:56.274Z,6.67
2018-07-30T23:57:58.412Z,7.03
